sensor_id;sensor_type;location;lat;lon;timestamp;P1;durP1;ratioP1;P2;durP2;ratioP2
43088;SDS011;28709;52.030;5.652;2022-10-15T00:01:14;31.63;;;16.58;;
43088;SDS011;28709;52.030;5.652;2022-10-15T00:03:42;30.88;;;17.63;;
43088;SDS011;28709;52.030;5.652;2022-10-15T00:06:10;27.50;;;16.10;;
43088;SDS011;28709;52.030;5.652;2022-10-15T00:08:41;26.63;;;16.25;;
43088;SDS011;28709;52.030;5.652;2022-10-15T00:11:12;26.52;;;15.95;;
43088;SDS011;28709;52.030;5.652;2022-10-15T00:13:39;26.70;;;14.65;;
43088;SDS011;28709;52.030;5.652;2022-10-15T00:16:10;30.63;;;16.33;;
43088;SDS011;28709;52.030;5.652;2022-10-15T00:18:38;30.05;;;17.33;;
43088;SDS011;28709;52.030;5.652;2022-10-15T00:21:04;29.88;;;17.60;;
43088;SDS011;28709;52.030;5.652;2022-10-15T00:23:31;29.65;;;17.65;;
43088;SDS011;28709;52.030;5.652;2022-10-15T00:26:01;26.80;;;16.73;;
43088;SDS011;28709;52.030;5.652;2022-10-15T00:28:37;23.85;;;14.90;;
43088;SDS011;28709;52.030;5.652;2022-10-15T00:31:04;23.88;;;15.55;;
43088;SDS011;28709;52.030;5.652;2022-10-15T00:33:35;29.85;;;16.90;;
43088;SDS011;28709;52.030;5.652;2022-10-15T00:36:02;25.63;;;15.95;;
43088;SDS011;28709;52.030;5.652;2022-10-15T00:38:30;29.55;;;17.55;;
43088;SDS011;28709;52.030;5.652;2022-10-15T00:40:56;23.65;;;14.60;;
43088;SDS011;28709;52.030;5.652;2022-10-15T00:46:37;27.02;;;16.20;;
43088;SDS011;28709;52.030;5.652;2022-10-15T00:49:23;29.30;;;17.02;;
43088;SDS011;28709;52.030;5.652;2022-10-15T00:51:55;25.35;;;14.85;;
43088;SDS011;28709;52.030;5.652;2022-10-15T00:54:25;27.15;;;16.33;;
43088;SDS011;28709;52.030;5.652;2022-10-15T00:56:51;24.90;;;14.50;;
43088;SDS011;28709;52.030;5.652;2022-10-15T00:59:18;26.58;;;16.30;;
43088;SDS011;28709;52.030;5.652;2022-10-15T01:01:48;24.23;;;15.75;;
43088;SDS011;28709;52.030;5.652;2022-10-15T01:04:14;26.40;;;15.52;;
43088;SDS011;28709;52.030;5.652;2022-10-15T01:06:42;21.17;;;13.73;;
43088;SDS011;28709;52.030;5.652;2022-10-15T01:09:07;22.25;;;14.55;;
43088;SDS011;28709;52.030;5.652;2022-10-15T01:11:38;24.02;;;14.10;;
43088;SDS011;28709;52.030;5.652;2022-10-15T01:14:17;29.85;;;14.98;;
43088;SDS011;28709;52.030;5.652;2022-10-15T01:17:27;23.05;;;15.27;;
43088;SDS011;28709;52.030;5.652;2022-10-15T01:20:19;28.85;;;17.10;;
43088;SDS011;28709;52.030;5.652;2022-10-15T01:31:27;35.78;;;19.85;;
43088;SDS011;28709;52.030;5.652;2022-10-15T01:36:56;27.40;;;15.52;;
43088;SDS011;28709;52.030;5.652;2022-10-15T01:39:31;31.35;;;16.85;;
43088;SDS011;28709;52.030;5.652;2022-10-15T01:42:12;28.05;;;16.50;;
43088;SDS011;28709;52.030;5.652;2022-10-15T01:44:44;34.75;;;18.17;;
43088;SDS011;28709;52.030;5.652;2022-10-15T01:49:52;32.35;;;18.13;;
43088;SDS011;28709;52.030;5.652;2022-10-15T01:52:22;28.65;;;16.88;;
43088;SDS011;28709;52.030;5.652;2022-10-15T01:54:51;34.08;;;17.98;;
43088;SDS011;28709;52.030;5.652;2022-10-15T01:57:18;31.35;;;19.00;;
43088;SDS011;28709;52.030;5.652;2022-10-15T01:59:46;38.00;;;19.00;;
43088;SDS011;28709;52.030;5.652;2022-10-15T02:02:12;33.05;;;18.23;;
43088;SDS011;28709;52.030;5.652;2022-10-15T02:04:38;32.72;;;18.42;;
43088;SDS011;28709;52.030;5.652;2022-10-15T02:15:00;38.28;;;19.58;;
43088;SDS011;28709;52.030;5.652;2022-10-15T02:20:55;40.90;;;22.00;;
43088;SDS011;28709;52.030;5.652;2022-10-15T02:26:13;34.75;;;19.45;;
43088;SDS011;28709;52.030;5.652;2022-10-15T02:28:41;46.50;;;24.48;;
43088;SDS011;28709;52.030;5.652;2022-10-15T02:31:11;36.20;;;18.83;;
43088;SDS011;28709;52.030;5.652;2022-10-15T02:33:38;38.55;;;20.45;;
43088;SDS011;28709;52.030;5.652;2022-10-15T02:36:05;38.63;;;21.23;;
43088;SDS011;28709;52.030;5.652;2022-10-15T02:38:31;40.92;;;23.70;;
43088;SDS011;28709;52.030;5.652;2022-10-15T02:40:59;38.63;;;21.83;;
43088;SDS011;28709;52.030;5.652;2022-10-15T02:43:26;41.88;;;23.13;;
43088;SDS011;28709;52.030;5.652;2022-10-15T02:45:51;38.78;;;21.00;;
43088;SDS011;28709;52.030;5.652;2022-10-15T02:48:17;38.88;;;20.70;;
43088;SDS011;28709;52.030;5.652;2022-10-15T02:50:43;43.10;;;23.90;;
43088;SDS011;28709;52.030;5.652;2022-10-15T02:53:08;37.55;;;21.95;;
43088;SDS011;28709;52.030;5.652;2022-10-15T02:55:34;49.38;;;22.35;;
43088;SDS011;28709;52.030;5.652;2022-10-15T02:58:00;38.53;;;21.35;;
43088;SDS011;28709;52.030;5.652;2022-10-15T03:00:25;31.63;;;19.08;;
43088;SDS011;28709;52.030;5.652;2022-10-15T03:02:51;46.58;;;24.60;;
43088;SDS011;28709;52.030;5.652;2022-10-15T03:05:17;42.55;;;21.42;;
43088;SDS011;28709;52.030;5.652;2022-10-15T03:07:43;47.88;;;24.08;;
43088;SDS011;28709;52.030;5.652;2022-10-15T03:10:09;41.20;;;21.98;;
43088;SDS011;28709;52.030;5.652;2022-10-15T03:12:34;45.08;;;23.92;;
43088;SDS011;28709;52.030;5.652;2022-10-15T03:15:00;40.70;;;21.05;;
43088;SDS011;28709;52.030;5.652;2022-10-15T03:17:26;42.60;;;24.40;;
43088;SDS011;28709;52.030;5.652;2022-10-15T03:19:52;41.22;;;22.65;;
43088;SDS011;28709;52.030;5.652;2022-10-15T03:22:17;42.97;;;24.38;;
43088;SDS011;28709;52.030;5.652;2022-10-15T03:24:43;40.15;;;22.75;;
43088;SDS011;28709;52.030;5.652;2022-10-15T03:27:08;42.22;;;23.25;;
43088;SDS011;28709;52.030;5.652;2022-10-15T03:29:34;39.97;;;22.55;;
43088;SDS011;28709;52.030;5.652;2022-10-15T03:32:00;42.65;;;23.02;;
43088;SDS011;28709;52.030;5.652;2022-10-15T03:34:25;48.10;;;24.42;;
43088;SDS011;28709;52.030;5.652;2022-10-15T03:36:51;45.00;;;24.65;;
43088;SDS011;28709;52.030;5.652;2022-10-15T03:39:16;47.70;;;25.65;;
43088;SDS011;28709;52.030;5.652;2022-10-15T03:41:42;35.53;;;20.45;;
43088;SDS011;28709;52.030;5.652;2022-10-15T03:44:09;38.53;;;20.70;;
43088;SDS011;28709;52.030;5.652;2022-10-15T03:46:35;39.47;;;20.83;;
43088;SDS011;28709;52.030;5.652;2022-10-15T03:49:00;37.78;;;21.00;;
43088;SDS011;28709;52.030;5.652;2022-10-15T03:51:27;33.97;;;18.83;;
43088;SDS011;28709;52.030;5.652;2022-10-15T03:53:52;35.75;;;19.20;;
43088;SDS011;28709;52.030;5.652;2022-10-15T03:56:18;42.63;;;22.27;;
43088;SDS011;28709;52.030;5.652;2022-10-15T03:58:44;36.38;;;20.80;;
43088;SDS011;28709;52.030;5.652;2022-10-15T04:01:10;36.63;;;21.75;;
43088;SDS011;28709;52.030;5.652;2022-10-15T04:03:38;43.50;;;22.13;;
43088;SDS011;28709;52.030;5.652;2022-10-15T04:06:04;31.77;;;19.05;;
43088;SDS011;28709;52.030;5.652;2022-10-15T04:08:30;26.80;;;16.88;;
43088;SDS011;28709;52.030;5.652;2022-10-15T04:10:55;32.85;;;17.83;;
43088;SDS011;28709;52.030;5.652;2022-10-15T04:13:23;33.78;;;20.05;;
43088;SDS011;28709;52.030;5.652;2022-10-15T04:15:49;33.97;;;18.73;;
43088;SDS011;28709;52.030;5.652;2022-10-15T04:18:14;42.42;;;23.05;;
43088;SDS011;28709;52.030;5.652;2022-10-15T04:20:40;38.60;;;21.17;;
43088;SDS011;28709;52.030;5.652;2022-10-15T04:23:07;46.08;;;24.80;;
43088;SDS011;28709;52.030;5.652;2022-10-15T04:25:33;48.78;;;21.80;;
43088;SDS011;28709;52.030;5.652;2022-10-15T04:28:00;34.63;;;20.13;;
43088;SDS011;28709;52.030;5.652;2022-10-15T04:30:26;32.45;;;19.17;;
43088;SDS011;28709;52.030;5.652;2022-10-15T04:32:52;34.85;;;21.08;;
43088;SDS011;28709;52.030;5.652;2022-10-15T04:35:17;37.05;;;20.17;;
43088;SDS011;28709;52.030;5.652;2022-10-15T04:37:43;44.10;;;22.00;;
43088;SDS011;28709;52.030;5.652;2022-10-15T04:40:09;50.78;;;26.73;;
43088;SDS011;28709;52.030;5.652;2022-10-15T04:42:36;36.00;;;19.17;;
43088;SDS011;28709;52.030;5.652;2022-10-15T04:45:01;28.63;;;18.95;;
43088;SDS011;28709;52.030;5.652;2022-10-15T04:47:27;29.00;;;18.52;;
43088;SDS011;28709;52.030;5.652;2022-10-15T04:49:53;29.92;;;18.05;;
43088;SDS011;28709;52.030;5.652;2022-10-15T04:52:18;26.42;;;16.00;;
43088;SDS011;28709;52.030;5.652;2022-10-15T04:54:44;23.92;;;14.88;;
43088;SDS011;28709;52.030;5.652;2022-10-15T04:57:09;27.40;;;16.48;;
43088;SDS011;28709;52.030;5.652;2022-10-15T04:59:35;30.95;;;19.30;;
43088;SDS011;28709;52.030;5.652;2022-10-15T05:02:01;30.38;;;18.63;;
43088;SDS011;28709;52.030;5.652;2022-10-15T05:04:26;28.83;;;17.80;;
43088;SDS011;28709;52.030;5.652;2022-10-15T05:06:52;28.95;;;17.17;;
43088;SDS011;28709;52.030;5.652;2022-10-15T05:09:17;33.90;;;20.90;;
43088;SDS011;28709;52.030;5.652;2022-10-15T05:11:43;32.70;;;18.98;;
43088;SDS011;28709;52.030;5.652;2022-10-15T05:14:09;29.75;;;18.20;;
43088;SDS011;28709;52.030;5.652;2022-10-15T05:16:34;34.28;;;20.92;;
43088;SDS011;28709;52.030;5.652;2022-10-15T05:19:01;31.15;;;18.95;;
43088;SDS011;28709;52.030;5.652;2022-10-15T05:21:31;31.33;;;18.75;;
43088;SDS011;28709;52.030;5.652;2022-10-15T05:23:58;30.65;;;18.75;;
43088;SDS011;28709;52.030;5.652;2022-10-15T05:26:24;42.40;;;24.10;;
43088;SDS011;28709;52.030;5.652;2022-10-15T05:28:51;35.42;;;20.85;;
43088;SDS011;28709;52.030;5.652;2022-10-15T05:31:18;43.28;;;25.02;;
43088;SDS011;28709;52.030;5.652;2022-10-15T05:33:45;31.70;;;19.05;;
43088;SDS011;28709;52.030;5.652;2022-10-15T05:36:16;27.55;;;18.25;;
43088;SDS011;28709;52.030;5.652;2022-10-15T05:38:47;32.63;;;21.67;;
43088;SDS011;28709;52.030;5.652;2022-10-15T05:41:14;34.10;;;21.77;;
43088;SDS011;28709;52.030;5.652;2022-10-15T05:43:40;40.75;;;24.20;;
43088;SDS011;28709;52.030;5.652;2022-10-15T05:46:06;43.45;;;26.00;;
43088;SDS011;28709;52.030;5.652;2022-10-15T05:48:32;39.17;;;23.67;;
43088;SDS011;28709;52.030;5.652;2022-10-15T05:51:01;36.55;;;22.95;;
43088;SDS011;28709;52.030;5.652;2022-10-15T05:53:27;43.35;;;25.80;;
43088;SDS011;28709;52.030;5.652;2022-10-15T05:55:53;45.60;;;26.98;;
43088;SDS011;28709;52.030;5.652;2022-10-15T05:58:19;40.78;;;24.42;;
43088;SDS011;28709;52.030;5.652;2022-10-15T06:00:45;49.00;;;29.25;;
43088;SDS011;28709;52.030;5.652;2022-10-15T06:03:21;47.30;;;27.05;;
43088;SDS011;28709;52.030;5.652;2022-10-15T06:05:46;44.45;;;27.05;;
43088;SDS011;28709;52.030;5.652;2022-10-15T06:08:12;48.90;;;27.00;;
43088;SDS011;28709;52.030;5.652;2022-10-15T06:10:38;45.10;;;25.08;;
43088;SDS011;28709;52.030;5.652;2022-10-15T06:13:04;59.05;;;29.80;;
43088;SDS011;28709;52.030;5.652;2022-10-15T06:15:30;46.55;;;24.95;;
43088;SDS011;28709;52.030;5.652;2022-10-15T06:17:56;43.95;;;24.50;;
43088;SDS011;28709;52.030;5.652;2022-10-15T06:20:22;41.55;;;24.25;;
43088;SDS011;28709;52.030;5.652;2022-10-15T06:22:47;54.30;;;27.02;;
43088;SDS011;28709;52.030;5.652;2022-10-15T06:25:13;44.22;;;23.25;;
43088;SDS011;28709;52.030;5.652;2022-10-15T06:27:38;36.85;;;21.05;;
43088;SDS011;28709;52.030;5.652;2022-10-15T06:30:04;32.40;;;19.00;;
43088;SDS011;28709;52.030;5.652;2022-10-15T06:32:30;32.35;;;18.60;;
43088;SDS011;28709;52.030;5.652;2022-10-15T06:34:56;36.20;;;19.42;;
43088;SDS011;28709;52.030;5.652;2022-10-15T06:37:21;36.75;;;17.35;;
43088;SDS011;28709;52.030;5.652;2022-10-15T06:39:47;31.15;;;16.60;;
43088;SDS011;28709;52.030;5.652;2022-10-15T06:42:13;30.13;;;17.33;;
43088;SDS011;28709;52.030;5.652;2022-10-15T06:44:38;32.95;;;18.30;;
43088;SDS011;28709;52.030;5.652;2022-10-15T06:47:05;33.83;;;18.38;;
43088;SDS011;28709;52.030;5.652;2022-10-15T06:49:30;34.92;;;19.95;;
43088;SDS011;28709;52.030;5.652;2022-10-15T06:51:57;29.63;;;18.05;;
43088;SDS011;28709;52.030;5.652;2022-10-15T06:54:22;34.03;;;19.02;;
43088;SDS011;28709;52.030;5.652;2022-10-15T06:56:49;29.70;;;17.52;;
43088;SDS011;28709;52.030;5.652;2022-10-15T06:59:14;31.55;;;18.75;;
43088;SDS011;28709;52.030;5.652;2022-10-15T07:01:40;28.63;;;16.20;;
43088;SDS011;28709;52.030;5.652;2022-10-15T07:04:06;29.17;;;17.48;;
43088;SDS011;28709;52.030;5.652;2022-10-15T07:06:33;27.20;;;15.38;;
43088;SDS011;28709;52.030;5.652;2022-10-15T07:09:02;28.80;;;17.30;;
43088;SDS011;28709;52.030;5.652;2022-10-15T07:11:29;24.67;;;16.20;;
43088;SDS011;28709;52.030;5.652;2022-10-15T07:13:55;23.83;;;14.32;;
43088;SDS011;28709;52.030;5.652;2022-10-15T07:16:22;23.52;;;14.60;;
43088;SDS011;28709;52.030;5.652;2022-10-15T07:18:47;24.40;;;15.85;;
43088;SDS011;28709;52.030;5.652;2022-10-15T07:21:13;24.48;;;15.23;;
43088;SDS011;28709;52.030;5.652;2022-10-15T07:23:39;22.98;;;15.23;;
43088;SDS011;28709;52.030;5.652;2022-10-15T07:26:04;24.13;;;15.20;;
43088;SDS011;28709;52.030;5.652;2022-10-15T07:28:30;27.85;;;15.50;;
43088;SDS011;28709;52.030;5.652;2022-10-15T07:31:04;23.45;;;15.30;;
43088;SDS011;28709;52.030;5.652;2022-10-15T07:33:31;26.27;;;16.02;;
43088;SDS011;28709;52.030;5.652;2022-10-15T07:36:00;24.58;;;14.98;;
43088;SDS011;28709;52.030;5.652;2022-10-15T07:38:32;25.17;;;15.65;;
43088;SDS011;28709;52.030;5.652;2022-10-15T07:40:59;23.35;;;15.43;;
43088;SDS011;28709;52.030;5.652;2022-10-15T07:43:26;25.95;;;16.27;;
43088;SDS011;28709;52.030;5.652;2022-10-15T07:45:52;22.95;;;14.52;;
43088;SDS011;28709;52.030;5.652;2022-10-15T07:48:18;23.23;;;15.05;;
43088;SDS011;28709;52.030;5.652;2022-10-15T07:50:44;24.52;;;15.73;;
43088;SDS011;28709;52.030;5.652;2022-10-15T07:53:09;20.92;;;14.07;;
43088;SDS011;28709;52.030;5.652;2022-10-15T07:55:35;24.05;;;13.57;;
43088;SDS011;28709;52.030;5.652;2022-10-15T07:58:01;22.88;;;15.07;;
43088;SDS011;28709;52.030;5.652;2022-10-15T08:00:29;20.85;;;13.68;;
43088;SDS011;28709;52.030;5.652;2022-10-15T08:02:56;21.25;;;13.90;;
43088;SDS011;28709;52.030;5.652;2022-10-15T08:05:21;21.58;;;13.90;;
43088;SDS011;28709;52.030;5.652;2022-10-15T08:07:47;21.55;;;14.30;;
43088;SDS011;28709;52.030;5.652;2022-10-15T08:10:13;18.88;;;13.00;;
43088;SDS011;28709;52.030;5.652;2022-10-15T08:12:38;20.10;;;13.88;;
43088;SDS011;28709;52.030;5.652;2022-10-15T08:15:04;23.83;;;13.98;;
43088;SDS011;28709;52.030;5.652;2022-10-15T08:17:30;25.27;;;13.75;;
43088;SDS011;28709;52.030;5.652;2022-10-15T08:19:56;21.35;;;13.70;;
43088;SDS011;28709;52.030;5.652;2022-10-15T08:22:22;20.20;;;13.10;;
43088;SDS011;28709;52.030;5.652;2022-10-15T08:24:47;21.45;;;13.85;;
43088;SDS011;28709;52.030;5.652;2022-10-15T08:27:13;19.60;;;14.35;;
43088;SDS011;28709;52.030;5.652;2022-10-15T08:29:39;24.40;;;16.02;;
43088;SDS011;28709;52.030;5.652;2022-10-15T08:32:04;23.33;;;15.50;;
43088;SDS011;28709;52.030;5.652;2022-10-15T08:34:30;21.98;;;15.05;;
43088;SDS011;28709;52.030;5.652;2022-10-15T08:36:56;21.13;;;15.25;;
43088;SDS011;28709;52.030;5.652;2022-10-15T08:39:21;20.83;;;14.90;;
43088;SDS011;28709;52.030;5.652;2022-10-15T08:41:48;20.88;;;14.88;;
43088;SDS011;28709;52.030;5.652;2022-10-15T08:44:22;26.38;;;15.95;;
43088;SDS011;28709;52.030;5.652;2022-10-15T08:47:01;24.80;;;15.52;;
43088;SDS011;28709;52.030;5.652;2022-10-15T08:49:46;21.73;;;14.90;;
43088;SDS011;28709;52.030;5.652;2022-10-15T08:55:15;19.98;;;13.60;;
43088;SDS011;28709;52.030;5.652;2022-10-15T08:57:45;18.63;;;13.50;;
43088;SDS011;28709;52.030;5.652;2022-10-15T09:00:23;18.05;;;12.55;;
43088;SDS011;28709;52.030;5.652;2022-10-15T09:02:59;18.35;;;13.27;;
43088;SDS011;28709;52.030;5.652;2022-10-15T09:05:43;15.40;;;11.82;;
43088;SDS011;28709;52.030;5.652;2022-10-15T09:08:16;19.67;;;12.27;;
43088;SDS011;28709;52.030;5.652;2022-10-15T09:10:56;16.98;;;12.20;;
43088;SDS011;28709;52.030;5.652;2022-10-15T09:13:30;14.50;;;10.45;;
43088;SDS011;28709;52.030;5.652;2022-10-15T09:16:18;16.45;;;11.48;;
43088;SDS011;28709;52.030;5.652;2022-10-15T09:18:47;15.48;;;10.88;;
43088;SDS011;28709;52.030;5.652;2022-10-15T09:21:16;15.55;;;11.00;;
43088;SDS011;28709;52.030;5.652;2022-10-15T09:23:44;14.13;;;10.32;;
43088;SDS011;28709;52.030;5.652;2022-10-15T09:26:21;15.40;;;10.90;;
43088;SDS011;28709;52.030;5.652;2022-10-15T09:29:06;13.90;;;9.77;;
43088;SDS011;28709;52.030;5.652;2022-10-15T09:31:55;14.02;;;9.85;;
43088;SDS011;28709;52.030;5.652;2022-10-15T09:34:31;16.25;;;10.52;;
43088;SDS011;28709;52.030;5.652;2022-10-15T09:37:04;16.60;;;10.32;;
43088;SDS011;28709;52.030;5.652;2022-10-15T09:40:14;12.52;;;9.77;;
43088;SDS011;28709;52.030;5.652;2022-10-15T09:44:58;15.63;;;10.00;;
43088;SDS011;28709;52.030;5.652;2022-10-15T09:47:29;14.52;;;10.10;;
43088;SDS011;28709;52.030;5.652;2022-10-15T09:49:56;13.63;;;9.32;;
43088;SDS011;28709;52.030;5.652;2022-10-15T09:52:28;14.20;;;9.88;;
43088;SDS011;28709;52.030;5.652;2022-10-15T09:55:05;15.25;;;9.95;;
43088;SDS011;28709;52.030;5.652;2022-10-15T09:57:52;18.63;;;9.75;;
43088;SDS011;28709;52.030;5.652;2022-10-15T10:00:20;15.05;;;9.82;;
43088;SDS011;28709;52.030;5.652;2022-10-15T10:03:05;14.82;;;10.05;;
43088;SDS011;28709;52.030;5.652;2022-10-15T10:05:38;12.27;;;9.10;;
43088;SDS011;28709;52.030;5.652;2022-10-15T10:10:43;12.65;;;9.30;;
43088;SDS011;28709;52.030;5.652;2022-10-15T10:13:22;12.95;;;9.30;;
43088;SDS011;28709;52.030;5.652;2022-10-15T10:15:50;13.55;;;8.88;;
43088;SDS011;28709;52.030;5.652;2022-10-15T10:18:25;20.92;;;10.70;;
43088;SDS011;28709;52.030;5.652;2022-10-15T10:20:55;13.40;;;9.10;;
43088;SDS011;28709;52.030;5.652;2022-10-15T10:25:57;10.95;;;7.80;;
43088;SDS011;28709;52.030;5.652;2022-10-15T10:28:33;12.95;;;8.32;;
43088;SDS011;28709;52.030;5.652;2022-10-15T10:31:15;16.30;;;9.77;;
43088;SDS011;28709;52.030;5.652;2022-10-15T10:36:47;16.35;;;9.32;;
43088;SDS011;28709;52.030;5.652;2022-10-15T10:41:49;13.63;;;8.82;;
43088;SDS011;28709;52.030;5.652;2022-10-15T10:44:30;11.75;;;7.80;;
43088;SDS011;28709;52.030;5.652;2022-10-15T10:47:19;15.15;;;8.43;;
43088;SDS011;28709;52.030;5.652;2022-10-15T10:49:50;11.27;;;7.60;;
43088;SDS011;28709;52.030;5.652;2022-10-15T10:52:19;11.95;;;7.75;;
43088;SDS011;28709;52.030;5.652;2022-10-15T10:54:54;13.67;;;8.27;;
43088;SDS011;28709;52.030;5.652;2022-10-15T10:57:43;13.88;;;8.32;;
43088;SDS011;28709;52.030;5.652;2022-10-15T11:00:19;13.60;;;8.45;;
43088;SDS011;28709;52.030;5.652;2022-10-15T11:02:48;10.93;;;7.60;;
43088;SDS011;28709;52.030;5.652;2022-10-15T11:05:18;13.40;;;8.05;;
43088;SDS011;28709;52.030;5.652;2022-10-15T11:10:51;12.98;;;7.75;;
43088;SDS011;28709;52.030;5.652;2022-10-15T11:19:16;9.65;;;6.72;;
43088;SDS011;28709;52.030;5.652;2022-10-15T11:24:57;14.52;;;7.85;;
43088;SDS011;28709;52.030;5.652;2022-10-15T11:30:47;9.65;;;5.95;;
43088;SDS011;28709;52.030;5.652;2022-10-15T11:35:53;11.82;;;6.57;;
43088;SDS011;28709;52.030;5.652;2022-10-15T11:38:42;11.95;;;6.50;;
43088;SDS011;28709;52.030;5.652;2022-10-15T11:49:46;10.75;;;5.97;;
43088;SDS011;28709;52.030;5.652;2022-10-15T11:57:41;11.60;;;5.43;;
43088;SDS011;28709;52.030;5.652;2022-10-15T12:03:03;9.55;;;5.93;;
43088;SDS011;28709;52.030;5.652;2022-10-15T12:05:44;8.20;;;4.72;;
43088;SDS011;28709;52.030;5.652;2022-10-15T12:08:14;8.60;;;4.85;;
43088;SDS011;28709;52.030;5.652;2022-10-15T12:13:44;5.63;;;3.35;;
43088;SDS011;28709;52.030;5.652;2022-10-15T12:16:39;7.30;;;4.10;;
43088;SDS011;28709;52.030;5.652;2022-10-15T12:19:23;6.38;;;3.90;;
43088;SDS011;28709;52.030;5.652;2022-10-15T12:32:42;3.50;;;2.90;;
43088;SDS011;28709;52.030;5.652;2022-10-15T12:35:23;4.75;;;3.25;;
43088;SDS011;28709;52.030;5.652;2022-10-15T12:37:54;3.75;;;3.00;;
43088;SDS011;28709;52.030;5.652;2022-10-15T12:40:38;6.22;;;3.47;;
43088;SDS011;28709;52.030;5.652;2022-10-15T12:43:11;4.72;;;3.30;;
43088;SDS011;28709;52.030;5.652;2022-10-15T12:45:48;4.35;;;2.97;;
43088;SDS011;28709;52.030;5.652;2022-10-15T12:48:41;10.30;;;4.75;;
43088;SDS011;28709;52.030;5.652;2022-10-15T12:53:41;5.28;;;3.00;;
43088;SDS011;28709;52.030;5.652;2022-10-15T12:58:35;9.10;;;4.47;;
43088;SDS011;28709;52.030;5.652;2022-10-15T13:03:44;8.70;;;4.30;;
43088;SDS011;28709;52.030;5.652;2022-10-15T13:11:41;3.20;;;2.90;;
43088;SDS011;28709;52.030;5.652;2022-10-15T13:14:13;3.58;;;2.97;;
43088;SDS011;28709;52.030;5.652;2022-10-15T13:16:44;3.58;;;3.28;;
43088;SDS011;28709;52.030;5.652;2022-10-15T13:19:21;3.13;;;2.83;;
43088;SDS011;28709;52.030;5.652;2022-10-15T13:22:02;12.98;;;4.45;;
43088;SDS011;28709;52.030;5.652;2022-10-15T13:24:37;4.18;;;3.40;;
43088;SDS011;28709;52.030;5.652;2022-10-15T13:27:12;4.75;;;3.25;;
43088;SDS011;28709;52.030;5.652;2022-10-15T13:30:02;2.88;;;2.58;;
43088;SDS011;28709;52.030;5.652;2022-10-15T13:32:29;3.20;;;2.40;;
43088;SDS011;28709;52.030;5.652;2022-10-15T13:35:17;3.50;;;2.97;;
43088;SDS011;28709;52.030;5.652;2022-10-15T13:37:45;2.70;;;2.40;;
43088;SDS011;28709;52.030;5.652;2022-10-15T13:40:19;3.47;;;2.50;;
43088;SDS011;28709;52.030;5.652;2022-10-15T13:45:24;4.25;;;3.53;;
43088;SDS011;28709;52.030;5.652;2022-10-15T13:47:50;3.45;;;3.13;;
43088;SDS011;28709;52.030;5.652;2022-10-15T13:50:36;3.92;;;3.53;;
43088;SDS011;28709;52.030;5.652;2022-10-15T13:55:54;5.22;;;4.68;;
43088;SDS011;28709;52.030;5.652;2022-10-15T14:01:13;5.18;;;4.35;;
43088;SDS011;28709;52.030;5.652;2022-10-15T14:03:44;6.57;;;5.13;;
43088;SDS011;28709;52.030;5.652;2022-10-15T14:06:27;5.15;;;4.22;;
43088;SDS011;28709;52.030;5.652;2022-10-15T14:11:56;5.18;;;4.43;;
43088;SDS011;28709;52.030;5.652;2022-10-15T14:14:27;4.40;;;3.90;;
43088;SDS011;28709;52.030;5.652;2022-10-15T14:16:56;4.85;;;4.35;;
43088;SDS011;28709;52.030;5.652;2022-10-15T14:19:24;5.85;;;3.70;;
43088;SDS011;28709;52.030;5.652;2022-10-15T14:21:54;5.30;;;3.95;;
43088;SDS011;28709;52.030;5.652;2022-10-15T14:24:42;4.50;;;3.67;;
43088;SDS011;28709;52.030;5.652;2022-10-15T14:27:24;4.47;;;3.85;;
43088;SDS011;28709;52.030;5.652;2022-10-15T14:29:52;6.18;;;4.75;;
43088;SDS011;28709;52.030;5.652;2022-10-15T14:32:21;5.13;;;4.60;;
43088;SDS011;28709;52.030;5.652;2022-10-15T14:37:58;5.57;;;4.05;;
43088;SDS011;28709;52.030;5.652;2022-10-15T14:40:27;5.20;;;4.70;;
43088;SDS011;28709;52.030;5.652;2022-10-15T14:46:15;4.43;;;3.60;;
43088;SDS011;28709;52.030;5.652;2022-10-15T14:48:17;4.40;;;3.25;;
43088;SDS011;28709;52.030;5.652;2022-10-15T14:50:47;6.40;;;4.57;;
43088;SDS011;28709;52.030;5.652;2022-10-15T14:53:15;5.38;;;4.30;;
43088;SDS011;28709;52.030;5.652;2022-10-15T14:56:03;4.28;;;3.80;;
43088;SDS011;28709;52.030;5.652;2022-10-15T14:58:33;3.72;;;3.13;;
43088;SDS011;28709;52.030;5.652;2022-10-15T15:01:03;4.97;;;4.10;;
43088;SDS011;28709;52.030;5.652;2022-10-15T15:03:41;7.18;;;5.88;;
43088;SDS011;28709;52.030;5.652;2022-10-15T15:06:09;5.10;;;3.88;;
43088;SDS011;28709;52.030;5.652;2022-10-15T15:08:35;3.80;;;2.90;;
43088;SDS011;28709;52.030;5.652;2022-10-15T15:11:02;2.92;;;2.63;;
43088;SDS011;28709;52.030;5.652;2022-10-15T15:13:30;2.72;;;2.38;;
43088;SDS011;28709;52.030;5.652;2022-10-15T15:16:01;2.83;;;2.40;;
43088;SDS011;28709;52.030;5.652;2022-10-15T15:18:27;3.22;;;2.60;;
43088;SDS011;28709;52.030;5.652;2022-10-15T15:20:53;2.28;;;2.08;;
43088;SDS011;28709;52.030;5.652;2022-10-15T15:23:25;2.15;;;1.95;;
43088;SDS011;28709;52.030;5.652;2022-10-15T15:25:52;2.83;;;2.03;;
43088;SDS011;28709;52.030;5.652;2022-10-15T15:28:20;2.50;;;2.00;;
43088;SDS011;28709;52.030;5.652;2022-10-15T15:30:54;3.45;;;2.13;;
43088;SDS011;28709;52.030;5.652;2022-10-15T15:33:22;2.47;;;2.20;;
43088;SDS011;28709;52.030;5.652;2022-10-15T15:35:49;1.70;;;1.55;;
43088;SDS011;28709;52.030;5.652;2022-10-15T15:38:20;4.07;;;1.90;;
43088;SDS011;28709;52.030;5.652;2022-10-15T15:40:48;1.88;;;1.40;;
43088;SDS011;28709;52.030;5.652;2022-10-15T15:43:15;3.70;;;1.70;;
43088;SDS011;28709;52.030;5.652;2022-10-15T15:45:42;1.75;;;1.50;;
43088;SDS011;28709;52.030;5.652;2022-10-15T15:48:09;2.10;;;1.20;;
43088;SDS011;28709;52.030;5.652;2022-10-15T15:50:35;2.20;;;1.45;;
43088;SDS011;28709;52.030;5.652;2022-10-15T15:53:01;3.30;;;1.33;;
43088;SDS011;28709;52.030;5.652;2022-10-15T15:55:27;1.30;;;0.90;;
43088;SDS011;28709;52.030;5.652;2022-10-15T15:57:53;1.50;;;1.15;;
43088;SDS011;28709;52.030;5.652;2022-10-15T16:00:19;2.03;;;0.90;;
43088;SDS011;28709;52.030;5.652;2022-10-15T16:02:44;1.15;;;0.95;;
43088;SDS011;28709;52.030;5.652;2022-10-15T16:05:11;4.85;;;0.85;;
43088;SDS011;28709;52.030;5.652;2022-10-15T16:07:39;1.00;;;0.93;;
43088;SDS011;28709;52.030;5.652;2022-10-15T16:10:06;3.38;;;1.50;;
43088;SDS011;28709;52.030;5.652;2022-10-15T16:12:35;3.92;;;2.28;;
43088;SDS011;28709;52.030;5.652;2022-10-15T16:15:02;6.10;;;2.08;;
43088;SDS011;28709;52.030;5.652;2022-10-15T16:17:29;3.95;;;1.40;;
43088;SDS011;28709;52.030;5.652;2022-10-15T16:19:54;3.42;;;1.15;;
43088;SDS011;28709;52.030;5.652;2022-10-15T16:22:20;2.08;;;1.20;;
43088;SDS011;28709;52.030;5.652;2022-10-15T16:24:45;1.20;;;0.80;;
43088;SDS011;28709;52.030;5.652;2022-10-15T16:27:11;2.33;;;0.80;;
43088;SDS011;28709;52.030;5.652;2022-10-15T16:29:37;3.30;;;1.75;;
43088;SDS011;28709;52.030;5.652;2022-10-15T16:32:02;1.85;;;1.02;;
43088;SDS011;28709;52.030;5.652;2022-10-15T16:34:28;1.20;;;0.63;;
43088;SDS011;28709;52.030;5.652;2022-10-15T16:36:54;1.48;;;0.68;;
43088;SDS011;28709;52.030;5.652;2022-10-15T16:39:20;0.85;;;0.80;;
43088;SDS011;28709;52.030;5.652;2022-10-15T16:41:45;2.33;;;0.93;;
43088;SDS011;28709;52.030;5.652;2022-10-15T16:44:11;3.28;;;1.20;;
43088;SDS011;28709;52.030;5.652;2022-10-15T16:46:36;1.25;;;1.00;;
43088;SDS011;28709;52.030;5.652;2022-10-15T16:49:02;2.70;;;1.42;;
43088;SDS011;28709;52.030;5.652;2022-10-15T16:51:28;1.95;;;1.08;;